createdAt,value
2019-05-07T00:01:55.470Z,7.97
2019-05-07T00:04:24.847Z,5.70
2019-05-07T00:06:54.185Z,7.17
2019-05-07T00:09:23.627Z,5.80
2019-05-07T00:11:53.434Z,7.40
2019-05-07T00:14:24.673Z,6.78
2019-05-07T00:16:54.979Z,5.53
2019-05-07T00:19:24.321Z,6.47
2019-05-07T00:21:54.010Z,7.05
2019-05-07T00:24:23.348Z,9.25
2019-05-07T00:26:53.346Z,6.85
2019-05-07T00:29:22.745Z,6.10
2019-05-07T00:31:52.229Z,9.75
2019-05-07T00:34:23.487Z,6.10
2019-05-07T00:36:54.456Z,6.95
2019-05-07T00:39:28.416Z,6.17
2019-05-07T00:42:03.062Z,5.95
2019-05-07T00:44:34.295Z,6.25
2019-05-07T00:47:03.710Z,6.78
2019-05-07T00:49:33.159Z,8.55
2019-05-07T00:52:02.922Z,7.55
2019-05-07T00:54:33.398Z,8.20
2019-05-07T00:57:03.174Z,7.80
2019-05-07T00:59:32.627Z,6.90
2019-05-07T01:02:02.331Z,7.28
2019-05-07T01:04:33.148Z,7.25
2019-05-07T01:07:02.858Z,6.33
2019-05-07T01:09:32.482Z,6.62
2019-05-07T01:12:03.123Z,7.78
2019-05-07T01:14:32.687Z,5.58
2019-05-07T01:17:03.122Z,5.35
2019-05-07T01:19:32.918Z,7.78
2019-05-07T01:22:03.496Z,8.20
2019-05-07T01:24:32.866Z,6.03
2019-05-07T01:27:02.445Z,5.47
2019-05-07T01:29:32.947Z,5.83
2019-05-07T01:32:12.794Z,7.08
2019-05-07T01:34:46.610Z,6.83
2019-05-07T01:37:15.928Z,8.93
2019-05-07T01:39:45.253Z,6.28
2019-05-07T01:42:14.573Z,6.60
2019-05-07T01:44:43.905Z,7.67
2019-05-07T01:47:13.254Z,8.25
2019-05-07T01:49:42.640Z,6.72
2019-05-07T01:52:13.308Z,5.72
2019-05-07T01:54:42.958Z,7.40
2019-05-07T01:57:12.353Z,5.62
2019-05-07T01:59:42.642Z,6.80
2019-05-07T02:02:13.929Z,6.03
2019-05-07T02:04:47.873Z,7.08
2019-05-07T02:07:28.924Z,6.08
2019-05-07T02:09:59.971Z,7.58
2019-05-07T02:12:31.892Z,8.15
2019-05-07T02:15:02.680Z,6.28
2019-05-07T02:17:32.546Z,8.23
2019-05-07T02:20:04.126Z,9.70
2019-05-07T02:22:33.442Z,6.17
2019-05-07T02:25:03.350Z,8.43
2019-05-07T02:27:33.074Z,8.05
2019-05-07T02:30:05.021Z,7.70
2019-05-07T02:32:34.399Z,8.23
2019-05-07T02:35:05.076Z,7.62
2019-05-07T02:37:48.355Z,6.70
2019-05-07T02:40:25.847Z,6.28
2019-05-07T02:42:55.170Z,6.03
2019-05-07T02:45:28.858Z,7.20
2019-05-07T02:47:58.180Z,6.37
2019-05-07T02:50:29.153Z,7.83
2019-05-07T02:53:00.193Z,7.47
2019-05-07T02:55:33.665Z,6.45
2019-05-07T02:58:03.569Z,8.23
2019-05-07T03:00:33.729Z,9.60
2019-05-07T03:03:04.246Z,6.42
2019-05-07T03:05:35.153Z,8.35
2019-05-07T03:08:04.845Z,11.68
2019-05-07T03:10:34.476Z,8.60
2019-05-07T03:13:05.110Z,7.55
2019-05-07T03:15:34.684Z,6.08
2019-05-07T03:18:04.179Z,6.90
2019-05-07T03:20:53.228Z,9.00
2019-05-07T03:23:22.960Z,7.83
2019-05-07T03:26:13.590Z,7.85
2019-05-07T03:28:53.666Z,8.00
2019-05-07T03:31:26.129Z,6.67
2019-05-07T03:34:06.863Z,7.05
2019-05-07T03:36:48.511Z,7.10
2019-05-07T03:39:17.840Z,7.50
2019-05-07T03:41:47.194Z,10.55
2019-05-07T03:44:34.659Z,9.58
2019-05-07T03:47:17.611Z,7.53
2019-05-07T03:49:47.368Z,6.97
2019-05-07T03:52:16.774Z,5.87
2019-05-07T03:54:46.093Z,6.22
2019-05-07T03:57:15.963Z,7.00
2019-05-07T03:59:46.598Z,6.05
2019-05-07T04:02:15.926Z,6.97
2019-05-07T04:04:45.243Z,9.48
2019-05-07T04:07:14.573Z,6.30
2019-05-07T04:09:44.068Z,7.67
2019-05-07T04:12:13.537Z,7.28
2019-05-07T04:14:43.374Z,5.83
2019-05-07T04:17:18.531Z,6.37
2019-05-07T04:19:44.377Z,5.83
2019-05-07T04:22:14.290Z,6.80
2019-05-07T04:24:48.178Z,5.15
2019-05-07T04:27:23.837Z,5.47
2019-05-07T04:29:53.317Z,5.70
2019-05-07T04:32:25.507Z,8.15
2019-05-07T04:34:56.483Z,7.37
2019-05-07T04:37:25.807Z,6.97
2019-05-07T04:39:55.145Z,9.53
2019-05-07T04:42:25.439Z,8.30
2019-05-07T04:44:54.779Z,8.23
2019-05-07T04:47:38.701Z,10.30
2019-05-07T04:49:56.305Z,10.13
2019-05-07T04:52:36.193Z,6.40
2019-05-07T04:55:07.677Z,11.93
2019-05-07T04:57:37.005Z,6.42
2019-05-07T05:00:08.634Z,7.53
2019-05-07T05:02:39.665Z,7.92
2019-05-07T05:05:12.694Z,6.75
2019-05-07T05:07:42.868Z,10.68
2019-05-07T05:10:13.409Z,7.12
2019-05-07T05:12:43.111Z,7.80
2019-05-07T05:15:12.943Z,8.10
2019-05-07T05:17:50.084Z,9.58
2019-05-07T05:20:14.067Z,8.43
2019-05-07T05:22:53.067Z,10.10
2019-05-07T05:25:26.661Z,8.13
2019-05-07T05:27:55.985Z,9.63
2019-05-07T05:30:36.230Z,7.55
2019-05-07T05:33:05.555Z,7.45
2019-05-07T05:35:36.422Z,8.08
2019-05-07T05:38:06.110Z,7.85
2019-05-07T05:40:35.439Z,9.95
2019-05-07T05:43:15.381Z,11.30
2019-05-07T05:45:45.897Z,9.80
2019-05-07T05:48:15.283Z,10.45
2019-05-07T05:50:46.257Z,13.03
2019-05-07T05:53:17.215Z,11.33
2019-05-07T05:55:46.921Z,8.28
2019-05-07T05:58:24.011Z,9.60
2019-05-07T06:01:05.105Z,14.55
2019-05-07T06:03:39.061Z,11.68
2019-05-07T06:06:26.697Z,10.72
2019-05-07T06:09:03.482Z,12.60
2019-05-07T06:11:51.921Z,10.03
2019-05-07T06:14:22.722Z,13.08
2019-05-07T06:17:08.837Z,11.28
2019-05-07T06:19:39.831Z,11.35
2019-05-07T06:22:26.970Z,9.83
2019-05-07T06:24:57.943Z,14.33
2019-05-07T06:27:27.261Z,11.73
2019-05-07T06:29:56.599Z,10.50
2019-05-07T06:32:26.029Z,10.48
2019-05-07T06:34:55.451Z,15.03
2019-05-07T06:37:24.778Z,13.15
2019-05-07T06:39:55.754Z,13.60
2019-05-07T06:42:43.222Z,14.78
2019-05-07T06:45:14.644Z,10.82
2019-05-07T06:47:44.539Z,11.65
2019-05-07T06:50:14.048Z,12.33
2019-05-07T06:52:43.366Z,9.90
2019-05-07T06:55:13.674Z,11.48
2019-05-07T06:57:42.989Z,10.82
2019-05-07T07:00:17.460Z,11.20
2019-05-07T07:05:33.592Z,10.38
2019-05-07T07:08:06.091Z,9.38
2019-05-07T07:10:53.797Z,9.35
2019-05-07T07:13:24.828Z,11.85
2019-05-07T07:15:54.306Z,8.03
2019-05-07T07:18:23.629Z,9.00
2019-05-07T07:20:52.966Z,11.40
2019-05-07T07:23:22.767Z,11.03
2019-05-07T07:25:52.400Z,13.98
2019-05-07T07:28:22.065Z,9.93
2019-05-07T07:30:56.157Z,8.45
2019-05-07T07:33:27.593Z,11.85
2019-05-07T07:35:57.105Z,11.93
2019-05-07T07:38:32.989Z,13.88
2019-05-07T07:41:12.752Z,15.23
2019-05-07T07:43:42.281Z,10.90
2019-05-07T07:46:13.185Z,12.30
2019-05-07T07:48:43.534Z,12.03
2019-05-07T07:51:13.879Z,9.65
2019-05-07T07:53:43.446Z,11.18
2019-05-07T07:56:44.689Z,11.73
2019-05-07T07:59:22.019Z,11.38
2019-05-07T08:01:52.557Z,13.80
2019-05-07T08:04:22.823Z,13.18
2019-05-07T08:07:04.544Z,13.40
2019-05-07T08:09:35.122Z,11.57
2019-05-07T08:12:06.512Z,9.33
2019-05-07T08:14:35.986Z,12.98
2019-05-07T08:17:07.125Z,11.73
2019-05-07T08:19:36.588Z,12.10
2019-05-07T08:22:05.990Z,10.88
2019-05-07T08:24:35.318Z,13.03
2019-05-07T08:27:05.101Z,13.53
2019-05-07T08:29:34.428Z,13.88
2019-05-07T08:32:12.601Z,14.38
2019-05-07T08:34:43.691Z,12.82
2019-05-07T08:37:13.049Z,12.37
2019-05-07T08:39:42.904Z,8.00
2019-05-07T08:42:12.455Z,11.68
2019-05-07T08:44:52.273Z,10.82
2019-05-07T08:47:26.198Z,10.80
2019-05-07T08:49:55.536Z,10.78
2019-05-07T08:52:26.167Z,9.53
2019-05-07T08:54:55.600Z,16.07
2019-05-07T08:57:24.950Z,13.03
2019-05-07T09:00:00.293Z,10.35
2019-05-07T09:02:25.372Z,10.45
2019-05-07T09:04:54.710Z,10.58
2019-05-07T09:07:24.032Z,8.18
2019-05-07T09:09:53.371Z,9.20
2019-05-07T09:12:23.077Z,7.67
2019-05-07T09:14:53.581Z,12.25
2019-05-07T09:17:23.130Z,9.28
2019-05-07T09:19:54.840Z,9.65
2019-05-07T09:22:24.526Z,7.62
2019-05-07T09:24:53.861Z,6.97
2019-05-07T09:27:42.424Z,8.08
2019-05-07T09:30:23.506Z,9.10
2019-05-07T09:32:54.988Z,10.03
2019-05-07T09:35:28.827Z,9.15
2019-05-07T09:37:58.146Z,9.65
2019-05-07T09:40:27.487Z,7.75
2019-05-07T09:42:56.806Z,10.45
2019-05-07T09:45:27.184Z,6.33
2019-05-07T09:47:56.757Z,8.33
2019-05-07T09:50:26.085Z,9.88
2019-05-07T09:52:55.421Z,9.33
2019-05-07T09:55:24.753Z,10.10
2019-05-07T09:57:54.073Z,9.13
2019-05-07T10:00:25.046Z,10.70
2019-05-07T10:02:56.724Z,11.43
2019-05-07T10:05:25.805Z,8.15
2019-05-07T10:07:55.121Z,6.20
2019-05-07T10:10:24.449Z,7.60
2019-05-07T10:13:04.249Z,7.08
2019-05-07T10:15:33.653Z,7.83
2019-05-07T10:18:04.969Z,8.05
2019-05-07T10:20:34.369Z,5.87
2019-05-07T10:23:03.762Z,9.65
2019-05-07T10:25:37.448Z,4.00
2019-05-07T10:28:07.101Z,5.20
2019-05-07T10:30:36.680Z,5.90
2019-05-07T10:33:06.071Z,5.65
2019-05-07T10:35:35.569Z,6.72
2019-05-07T10:38:05.045Z,3.37
2019-05-07T10:40:34.447Z,4.90
2019-05-07T10:43:03.905Z,5.22
2019-05-07T10:45:53.254Z,8.28
2019-05-07T10:48:32.999Z,7.83
2019-05-07T10:51:03.275Z,6.72
2019-05-07T10:53:34.034Z,3.83
2019-05-07T10:56:03.371Z,3.30
2019-05-07T10:58:33.754Z,5.08
2019-05-07T11:01:03.244Z,4.92
2019-05-07T11:03:32.674Z,4.45
2019-05-07T11:06:02.063Z,5.10
2019-05-07T11:08:32.908Z,8.05
2019-05-07T11:11:03.032Z,3.60
2019-05-07T11:13:32.835Z,4.25
2019-05-07T11:16:11.645Z,5.95
2019-05-07T11:18:42.685Z,3.50
2019-05-07T11:21:12.229Z,6.40
2019-05-07T11:23:41.951Z,3.45
2019-05-07T11:26:11.925Z,5.78
2019-05-07T11:28:41.367Z,4.10
2019-05-07T11:31:12.439Z,6.50
2019-05-07T11:33:41.774Z,4.62
2019-05-07T11:36:12.098Z,3.37
2019-05-07T11:38:41.839Z,5.75
2019-05-07T11:41:12.838Z,5.78
2019-05-07T11:43:46.568Z,6.58
2019-05-07T11:46:17.814Z,3.75
2019-05-07T11:48:48.769Z,3.83
2019-05-07T11:51:23.115Z,4.53
2019-05-07T11:56:37.292Z,6.42
2019-05-07T11:59:07.413Z,5.05
2019-05-07T12:01:46.640Z,5.95
2019-05-07T12:04:09.474Z,6.17
2019-05-07T12:06:38.801Z,3.42
2019-05-07T12:09:08.499Z,6.78
2019-05-07T12:11:37.898Z,5.00
2019-05-07T12:14:07.218Z,3.98
2019-05-07T12:16:37.622Z,5.80
2019-05-07T12:19:07.981Z,3.77
2019-05-07T12:21:37.317Z,5.20
2019-05-07T12:24:06.643Z,6.20
2019-05-07T12:26:37.617Z,7.28
2019-05-07T12:29:06.997Z,3.62
2019-05-07T12:31:55.728Z,5.15
2019-05-07T12:34:26.787Z,4.33
2019-05-07T12:36:56.186Z,4.55
2019-05-07T12:39:25.506Z,7.80
2019-05-07T12:41:54.913Z,4.95
2019-05-07T12:44:24.225Z,5.75
2019-05-07T12:46:53.734Z,7.30
2019-05-07T12:49:23.049Z,8.73
2019-05-07T12:51:54.022Z,8.28
2019-05-07T12:54:27.969Z,5.50
2019-05-07T12:56:57.306Z,5.37
2019-05-07T12:59:27.489Z,6.92
2019-05-07T13:02:26.656Z,5.22
2019-05-07T13:04:41.745Z,4.42
2019-05-07T13:07:24.791Z,4.78
2019-05-07T13:09:55.531Z,3.65
2019-05-07T13:12:24.866Z,4.25
2019-05-07T13:14:54.183Z,3.47
2019-05-07T13:17:23.630Z,6.05
2019-05-07T13:19:52.953Z,5.37
2019-05-07T13:22:22.302Z,6.40
2019-05-07T13:24:52.897Z,8.68
2019-05-07T13:27:22.512Z,4.50
2019-05-07T13:29:53.197Z,7.00
2019-05-07T13:32:26.227Z,6.90
2019-05-07T13:34:55.610Z,7.50
2019-05-07T13:37:29.289Z,7.97
2019-05-07T13:40:16.956Z,4.22
2019-05-07T13:42:47.998Z,5.08
2019-05-07T13:45:22.502Z,12.33
2019-05-07T13:47:54.271Z,7.90
2019-05-07T13:50:24.830Z,4.95
2019-05-07T13:52:54.170Z,7.08
2019-05-07T13:55:23.487Z,5.97
2019-05-07T13:57:52.822Z,5.33
2019-05-07T14:00:26.822Z,8.70
2019-05-07T14:02:56.152Z,3.75
2019-05-07T14:05:25.538Z,6.17
2019-05-07T14:07:55.763Z,5.00
2019-05-07T14:10:26.062Z,4.15
2019-05-07T14:13:07.608Z,6.67
2019-05-07T14:15:26.966Z,3.87
2019-05-07T14:17:56.485Z,4.00
2019-05-07T14:20:25.857Z,3.80
2019-05-07T14:22:55.195Z,5.85
2019-05-07T14:25:24.532Z,4.05
2019-05-07T14:27:53.846Z,3.45
2019-05-07T14:30:24.509Z,9.35
2019-05-07T14:32:55.730Z,5.03
2019-05-07T14:35:26.762Z,8.10
2019-05-07T14:37:57.713Z,5.37
2019-05-07T14:40:27.185Z,3.30
2019-05-07T14:42:58.150Z,11.55
2019-05-07T14:45:27.613Z,6.05
2019-05-07T14:47:56.933Z,5.15
2019-05-07T14:50:26.338Z,5.08
2019-05-07T14:52:55.790Z,3.40
2019-05-07T14:55:25.294Z,6.10
2019-05-07T14:57:54.786Z,4.30
2019-05-07T15:00:24.187Z,3.50
2019-05-07T15:02:53.678Z,3.90
2019-05-07T15:05:23.010Z,3.83
2019-05-07T15:07:52.398Z,3.25
2019-05-07T15:10:22.262Z,5.75
2019-05-07T15:12:52.886Z,5.08
2019-05-07T15:15:22.286Z,6.50
2019-05-07T15:17:55.109Z,4.03
2019-05-07T15:20:24.605Z,4.30
2019-05-07T15:22:58.906Z,8.18
2019-05-07T15:25:28.593Z,8.35
2019-05-07T15:27:58.041Z,6.37
2019-05-07T15:30:29.017Z,4.53
2019-05-07T15:32:58.390Z,3.22
2019-05-07T15:35:27.798Z,3.45
2019-05-07T15:37:57.113Z,3.08
2019-05-07T15:40:26.455Z,4.72
2019-05-07T15:42:55.765Z,6.42
2019-05-07T15:45:26.142Z,5.87
2019-05-07T15:47:57.101Z,5.70
2019-05-07T15:50:28.902Z,5.22
2019-05-07T15:53:01.647Z,6.87
2019-05-07T15:55:30.898Z,3.80
2019-05-07T15:58:02.652Z,4.22
2019-05-07T16:00:33.599Z,4.47
2019-05-07T16:03:04.757Z,4.20
2019-05-07T16:05:34.094Z,5.42
2019-05-07T16:08:04.376Z,3.42
2019-05-07T16:10:33.775Z,5.30
2019-05-07T16:13:03.262Z,6.08
2019-05-07T16:15:32.670Z,5.37
2019-05-07T16:18:13.056Z,5.10
2019-05-07T16:20:42.992Z,5.20
2019-05-07T16:23:17.288Z,4.62
2019-05-07T16:25:43.501Z,7.45
2019-05-07T16:28:12.946Z,3.98
2019-05-07T16:30:43.418Z,6.62
2019-05-07T16:33:12.949Z,6.42
2019-05-07T16:35:42.711Z,5.05
2019-05-07T16:38:14.538Z,4.35
2019-05-07T16:40:43.178Z,6.15
2019-05-07T16:43:12.494Z,3.42
2019-05-07T16:45:42.489Z,3.65
2019-05-07T16:48:12.102Z,4.25
2019-05-07T16:50:41.529Z,5.78
2019-05-07T16:53:13.415Z,6.10
2019-05-07T16:55:43.038Z,5.85
2019-05-07T16:58:23.332Z,6.70
2019-05-07T17:00:53.710Z,4.65
2019-05-07T17:03:24.676Z,4.83
2019-05-07T17:05:54.001Z,4.65
2019-05-07T17:08:24.971Z,9.08
2019-05-07T17:10:54.338Z,4.33
2019-05-07T17:13:23.703Z,5.45
2019-05-07T17:15:57.350Z,3.83
2019-05-07T17:18:27.489Z,4.20
2019-05-07T17:20:58.450Z,5.80
2019-05-07T17:23:42.841Z,3.40
2019-05-07T17:25:58.791Z,6.12
2019-05-07T17:28:28.126Z,5.62
2019-05-07T17:30:57.450Z,6.15
2019-05-07T17:33:27.822Z,3.60
2019-05-07T17:35:57.182Z,3.15
2019-05-07T17:38:26.573Z,7.60
2019-05-07T17:41:09.139Z,4.40
2019-05-07T17:43:26.998Z,5.17
2019-05-07T17:45:56.314Z,4.92
2019-05-07T17:48:25.645Z,2.30
2019-05-07T17:50:59.409Z,3.85
2019-05-07T17:53:28.786Z,2.80
2019-05-07T17:55:58.105Z,3.72
2019-05-07T17:58:28.200Z,2.90
2019-05-07T18:00:59.166Z,2.72
2019-05-07T18:03:32.348Z,7.87
2019-05-07T18:06:02.201Z,1.90
2019-05-07T18:08:33.078Z,7.25
2019-05-07T18:11:02.724Z,3.83
2019-05-07T18:13:33.653Z,3.83
2019-05-07T18:16:05.654Z,2.37
2019-05-07T18:18:35.001Z,2.10
2019-05-07T18:21:05.191Z,4.65
2019-05-07T18:23:34.730Z,4.28
2019-05-07T18:26:04.498Z,2.85
2019-05-07T18:28:33.834Z,4.17
2019-05-07T18:31:03.158Z,3.25
2019-05-07T18:33:34.117Z,2.33
2019-05-07T18:36:04.177Z,2.33
2019-05-07T18:38:33.546Z,5.78
2019-05-07T18:41:02.989Z,3.55
2019-05-07T18:43:33.558Z,4.50
2019-05-07T18:46:02.872Z,3.45
2019-05-07T18:48:32.201Z,3.77
2019-05-07T18:51:02.718Z,3.55
2019-05-07T18:53:32.137Z,3.30
2019-05-07T18:56:01.833Z,3.62
2019-05-07T18:58:31.934Z,1.70
2019-05-07T19:01:03.071Z,3.75
2019-05-07T19:03:32.606Z,2.00
2019-05-07T19:06:02.844Z,3.22
2019-05-07T19:08:33.298Z,3.95
2019-05-07T19:11:05.754Z,5.17
2019-05-07T19:13:34.425Z,5.95
2019-05-07T19:16:03.762Z,3.22
2019-05-07T19:18:33.109Z,3.72
2019-05-07T19:21:02.428Z,7.67
2019-05-07T19:23:33.012Z,5.40
2019-05-07T19:26:02.574Z,4.85
2019-05-07T19:28:33.036Z,5.03
2019-05-07T19:31:03.750Z,8.38
2019-05-07T19:33:33.186Z,3.83
2019-05-07T19:36:02.515Z,3.20
2019-05-07T19:38:32.342Z,5.08
2019-05-07T19:41:02.260Z,3.47
2019-05-07T19:43:32.576Z,4.87
2019-05-07T19:46:03.061Z,3.20
2019-05-07T19:48:33.682Z,4.22
2019-05-07T19:51:03.133Z,5.45
2019-05-07T19:53:33.567Z,3.62
2019-05-07T19:56:04.529Z,3.40
2019-05-07T19:58:34.001Z,6.83
2019-05-07T20:01:04.725Z,4.75
2019-05-07T20:03:34.121Z,7.47
2019-05-07T20:06:04.081Z,9.15
2019-05-07T20:08:33.418Z,8.55
2019-05-07T20:11:22.402Z,9.18
2019-05-07T20:13:52.350Z,8.83
2019-05-07T20:16:23.111Z,8.03
2019-05-07T20:18:52.761Z,8.33
2019-05-07T20:21:22.855Z,7.33
2019-05-07T20:23:53.654Z,4.50
2019-05-07T20:26:23.323Z,7.83
2019-05-07T20:28:53.861Z,5.92
2019-05-07T20:31:24.251Z,5.65
2019-05-07T20:33:53.582Z,5.70
2019-05-07T20:36:22.974Z,4.85
2019-05-07T20:38:52.332Z,7.97
2019-05-07T20:41:23.261Z,4.53
2019-05-07T20:43:52.921Z,12.98
2019-05-07T20:46:22.242Z,6.58
2019-05-07T20:48:52.598Z,3.65
2019-05-07T20:51:23.076Z,10.35
2019-05-07T20:53:54.346Z,5.87
2019-05-07T20:56:46.530Z,3.70
2019-05-07T20:59:14.667Z,4.90
2019-05-07T21:01:43.991Z,6.33
2019-05-07T21:04:13.326Z,4.80
2019-05-07T21:06:43.295Z,6.65
2019-05-07T21:09:12.916Z,5.97
2019-05-07T21:11:43.039Z,7.55
2019-05-07T21:14:12.717Z,6.53
2019-05-07T21:16:42.615Z,9.68
2019-05-07T21:19:12.777Z,8.78
2019-05-07T21:21:42.403Z,6.92
2019-05-07T21:24:13.061Z,5.62
2019-05-07T21:26:42.644Z,4.00
2019-05-07T21:29:13.711Z,9.40
2019-05-07T21:31:43.401Z,6.03
2019-05-07T21:34:12.798Z,7.17
2019-05-07T21:36:43.201Z,6.10
2019-05-07T21:39:13.239Z,7.20
2019-05-07T21:41:42.948Z,4.60
2019-05-07T21:44:12.381Z,5.55
2019-05-07T21:46:42.536Z,3.40
2019-05-07T21:49:12.436Z,4.78
2019-05-07T21:51:41.920Z,5.97
2019-05-07T21:54:29.454Z,5.78
2019-05-07T21:57:03.416Z,6.67
2019-05-07T21:59:35.791Z,3.22
2019-05-07T22:02:08.218Z,5.62
2019-05-07T22:04:37.801Z,4.45
2019-05-07T22:07:07.144Z,3.92
2019-05-07T22:09:36.527Z,12.15
2019-05-07T22:12:05.862Z,4.22
2019-05-07T22:14:35.177Z,5.92
2019-05-07T22:17:05.354Z,5.03
2019-05-07T22:19:34.683Z,5.55
2019-05-07T22:22:04.013Z,4.25
2019-05-07T22:24:33.325Z,4.05
2019-05-07T22:27:04.237Z,4.83
2019-05-07T22:29:33.658Z,5.60
2019-05-07T22:32:11.960Z,3.67
2019-05-07T22:34:45.474Z,3.30
2019-05-07T22:37:16.421Z,5.78
2019-05-07T22:39:47.358Z,3.90
2019-05-07T22:42:18.306Z,7.08
2019-05-07T22:44:47.693Z,3.72
2019-05-07T22:47:22.225Z,4.33
2019-05-07T22:49:53.725Z,3.02
2019-05-07T22:52:22.526Z,5.95
2019-05-07T22:54:51.980Z,8.03
2019-05-07T22:57:38.378Z,3.98
2019-05-07T23:00:12.230Z,3.77
2019-05-07T23:02:42.938Z,4.58
2019-05-07T23:05:12.356Z,5.97
2019-05-07T23:07:43.882Z,5.58
2019-05-07T23:10:13.182Z,3.67
2019-05-07T23:12:42.523Z,3.70
2019-05-07T23:15:12.077Z,4.65
2019-05-07T23:17:42.388Z,5.42
2019-05-07T23:20:11.693Z,5.60
2019-05-07T23:22:42.830Z,6.35
2019-05-07T23:25:12.390Z,4.80
2019-05-07T23:27:42.030Z,4.55
2019-05-07T23:30:13.019Z,7.58
2019-05-07T23:32:42.578Z,4.97
2019-05-07T23:35:12.733Z,6.35
2019-05-07T23:37:44.183Z,5.83
2019-05-07T23:40:17.798Z,4.90
2019-05-07T23:42:48.769Z,3.70
2019-05-07T23:45:18.085Z,4.20
2019-05-07T23:47:47.414Z,3.85
2019-05-07T23:50:16.730Z,5.05
2019-05-07T23:52:46.140Z,5.05
2019-05-07T23:55:15.617Z,4.47
2019-05-07T23:57:45.046Z,4.37
